createdAt,value
2019-03-28T00:00:41.634Z,17.03
2019-03-28T00:03:11.101Z,16.90
2019-03-28T00:05:40.489Z,13.17
2019-03-28T00:08:12.384Z,16.10
2019-03-28T00:10:40.977Z,16.97
2019-03-28T00:13:10.542Z,15.03
2019-03-28T00:15:39.918Z,14.17
2019-03-28T00:18:09.309Z,12.82
2019-03-28T00:20:38.675Z,15.13
2019-03-28T00:23:27.603Z,15.27
2019-03-28T00:25:57.495Z,18.07
2019-03-28T00:28:26.879Z,17.30
2019-03-28T00:30:56.259Z,16.87
2019-03-28T00:33:25.642Z,17.97
2019-03-28T00:35:55.037Z,23.12
2019-03-28T00:38:25.150Z,20.23
2019-03-28T00:40:55.179Z,21.83
2019-03-28T00:43:25.327Z,18.90
2019-03-28T00:45:55.165Z,20.53
2019-03-28T00:48:24.551Z,23.37
2019-03-28T00:50:53.969Z,19.02
2019-03-28T00:53:23.316Z,20.63
2019-03-28T00:55:52.706Z,20.40
2019-03-28T00:58:22.094Z,22.03
2019-03-28T01:00:51.467Z,21.33
2019-03-28T01:03:20.866Z,20.97
2019-03-28T01:05:50.236Z,17.17
2019-03-28T01:08:19.627Z,21.57
2019-03-28T01:10:49.405Z,16.50
2019-03-28T01:13:18.989Z,21.50
2019-03-28T01:15:48.862Z,19.93
2019-03-28T01:18:18.717Z,22.70
2019-03-28T01:20:48.106Z,22.17
2019-03-28T01:23:17.478Z,19.23
2019-03-28T01:25:46.858Z,20.90
2019-03-28T01:28:16.358Z,22.53
2019-03-28T01:30:46.208Z,20.33
2019-03-28T01:33:15.692Z,21.40
2019-03-28T01:35:46.106Z,20.92
2019-03-28T01:38:16.233Z,22.22
2019-03-28T01:40:46.792Z,18.02
2019-03-28T01:43:16.349Z,17.80
2019-03-28T01:45:46.757Z,17.60
2019-03-28T01:48:17.081Z,18.10
2019-03-28T01:50:47.605Z,17.65
2019-03-28T01:53:17.951Z,20.23
2019-03-28T01:55:47.732Z,21.23
2019-03-28T01:58:17.109Z,13.93
2019-03-28T02:00:46.500Z,14.57
2019-03-28T02:03:15.881Z,14.97
2019-03-28T02:05:45.259Z,16.73
2019-03-28T02:08:15.262Z,14.13
2019-03-28T02:10:44.703Z,18.23
2019-03-28T02:13:14.326Z,19.50
2019-03-28T02:15:43.723Z,13.67
2019-03-28T02:18:13.110Z,17.73
2019-03-28T02:20:42.501Z,23.57
2019-03-28T02:23:11.874Z,20.68
2019-03-28T02:25:41.272Z,17.87
2019-03-28T02:28:11.004Z,14.03
2019-03-28T02:30:40.624Z,15.87
2019-03-28T02:33:09.999Z,14.90
2019-03-28T02:35:39.387Z,15.03
2019-03-28T02:38:08.994Z,13.43
2019-03-28T02:40:38.385Z,20.03
2019-03-28T02:43:07.757Z,18.70
2019-03-28T02:45:37.136Z,17.25
2019-03-28T02:48:06.514Z,15.43
2019-03-28T02:50:36.218Z,16.83
2019-03-28T02:53:05.584Z,18.37
2019-03-28T02:55:34.956Z,16.27
2019-03-28T02:58:04.413Z,17.57
2019-03-28T03:00:33.776Z,16.80
2019-03-28T03:03:03.165Z,19.13
2019-03-28T03:05:32.549Z,18.47
2019-03-28T03:08:01.942Z,17.30
2019-03-28T03:10:31.310Z,16.77
2019-03-28T03:13:01.039Z,21.33
2019-03-28T03:15:30.424Z,23.73
2019-03-28T03:17:59.807Z,21.40
2019-03-28T03:20:29.176Z,19.12
2019-03-28T03:22:58.565Z,17.67
2019-03-28T03:25:27.954Z,18.13
2019-03-28T03:27:59.329Z,16.10
2019-03-28T03:30:31.374Z,18.33
2019-03-28T03:33:00.097Z,16.32
2019-03-28T03:35:29.474Z,20.50
2019-03-28T03:37:58.867Z,19.53
2019-03-28T03:40:28.246Z,19.03
2019-03-28T03:42:57.778Z,15.10
2019-03-28T03:45:27.464Z,20.63
2019-03-28T03:47:57.873Z,21.00
2019-03-28T03:50:29.808Z,24.20
2019-03-28T03:52:59.409Z,19.42
2019-03-28T03:55:29.679Z,21.25
2019-03-28T03:58:14.492Z,19.12
2019-03-28T04:00:36.410Z,20.40
2019-03-28T04:03:06.039Z,19.37
2019-03-28T04:05:36.290Z,23.47
2019-03-28T04:08:05.680Z,21.67
2019-03-28T04:10:35.144Z,22.60
2019-03-28T04:13:04.573Z,17.73
2019-03-28T04:15:33.978Z,18.77
2019-03-28T04:18:03.720Z,21.13
2019-03-28T04:20:33.111Z,19.40
2019-03-28T04:23:03.855Z,21.55
2019-03-28T04:25:33.605Z,20.80
2019-03-28T04:28:03.306Z,23.40
2019-03-28T04:30:32.698Z,23.70
2019-03-28T04:33:02.327Z,23.77
2019-03-28T04:35:32.088Z,25.03
2019-03-28T04:38:01.485Z,22.58
2019-03-28T04:40:30.849Z,23.23
2019-03-28T04:43:00.429Z,24.47
2019-03-28T04:45:29.819Z,20.43
2019-03-28T04:47:59.200Z,25.90
2019-03-28T04:50:29.047Z,22.03
2019-03-28T04:52:58.447Z,20.97
2019-03-28T04:55:27.833Z,26.47
2019-03-28T04:57:57.211Z,23.13
2019-03-28T05:00:26.668Z,22.90
2019-03-28T05:02:56.937Z,23.60
2019-03-28T05:05:26.881Z,21.55
2019-03-28T05:07:56.269Z,21.27
2019-03-28T05:10:25.653Z,24.77
2019-03-28T05:12:55.046Z,19.77
2019-03-28T05:15:24.463Z,21.13
2019-03-28T05:17:53.846Z,22.42
2019-03-28T05:20:23.614Z,25.37
2019-03-28T05:22:54.128Z,25.23
2019-03-28T05:25:24.542Z,22.35
2019-03-28T05:27:53.890Z,27.00
2019-03-28T05:30:23.286Z,22.40
2019-03-28T05:32:52.666Z,25.37
2019-03-28T05:35:22.078Z,22.80
2019-03-28T05:37:51.460Z,24.20
2019-03-28T05:40:22.815Z,26.25
2019-03-28T05:42:51.995Z,25.57
2019-03-28T05:45:21.408Z,31.77
2019-03-28T05:47:50.886Z,30.17
2019-03-28T05:50:20.842Z,24.40
2019-03-28T05:52:50.217Z,28.27
2019-03-28T05:55:19.604Z,24.27
2019-03-28T05:57:48.986Z,23.00
2019-03-28T06:00:18.867Z,24.57
2019-03-28T06:02:48.567Z,25.30
2019-03-28T06:05:18.056Z,24.23
2019-03-28T06:07:49.820Z,24.57
2019-03-28T06:10:20.134Z,27.10
2019-03-28T06:12:49.892Z,24.83
2019-03-28T06:15:19.509Z,28.15
2019-03-28T06:17:48.880Z,26.87
2019-03-28T06:20:18.402Z,32.47
2019-03-28T06:22:47.798Z,25.90
2019-03-28T06:25:17.391Z,24.95
2019-03-28T06:27:46.769Z,24.20
2019-03-28T06:30:16.787Z,24.17
2019-03-28T06:32:46.167Z,27.97
2019-03-28T06:35:15.587Z,28.67
2019-03-28T06:37:44.987Z,25.33
2019-03-28T06:40:14.847Z,28.80
2019-03-28T06:42:44.310Z,26.53
2019-03-28T06:45:13.939Z,27.55
2019-03-28T06:47:44.216Z,28.00
2019-03-28T06:50:13.913Z,25.02
2019-03-28T06:52:43.287Z,25.23
2019-03-28T06:55:12.902Z,26.10
2019-03-28T06:57:42.655Z,27.03
2019-03-28T07:00:12.982Z,26.83
2019-03-28T07:02:43.442Z,24.60
2019-03-28T07:05:13.428Z,28.80
2019-03-28T07:07:42.815Z,27.33
2019-03-28T07:10:12.606Z,30.40
2019-03-28T07:12:41.981Z,28.85
2019-03-28T07:15:12.588Z,29.27
2019-03-28T07:17:41.975Z,30.32
2019-03-28T07:20:12.959Z,27.60
2019-03-28T07:22:42.349Z,32.53
2019-03-28T07:25:11.939Z,30.00
2019-03-28T07:27:41.599Z,26.23
2019-03-28T07:30:13.793Z,26.77
2019-03-28T07:32:43.750Z,26.73
2019-03-28T07:35:13.511Z,29.33
2019-03-28T07:37:43.393Z,27.77
2019-03-28T07:40:14.645Z,25.93
2019-03-28T07:42:44.027Z,26.83
2019-03-28T07:45:13.911Z,29.52
2019-03-28T07:47:43.303Z,25.90
2019-03-28T07:50:13.174Z,31.43
2019-03-28T07:52:42.571Z,25.03
2019-03-28T07:55:12.169Z,27.77
2019-03-28T07:57:41.702Z,30.03
2019-03-28T08:00:13.473Z,26.30
2019-03-28T08:02:42.919Z,32.93
2019-03-28T08:05:13.381Z,31.77
2019-03-28T08:07:45.479Z,29.03
2019-03-28T08:10:15.247Z,29.07
2019-03-28T08:12:44.641Z,32.77
2019-03-28T08:15:16.351Z,23.32
2019-03-28T08:17:45.799Z,24.27
2019-03-28T08:20:17.061Z,25.80
2019-03-28T08:22:46.448Z,30.37
2019-03-28T08:25:16.020Z,27.93
2019-03-28T08:27:45.441Z,27.17
2019-03-28T08:30:18.859Z,26.33
2019-03-28T08:32:46.743Z,27.85
2019-03-28T08:35:16.136Z,26.50
2019-03-28T08:37:45.968Z,29.30
2019-03-28T08:40:19.975Z,27.17
2019-03-28T08:42:49.351Z,26.60
2019-03-28T08:45:21.004Z,25.53
2019-03-28T08:47:50.379Z,23.73
2019-03-28T08:50:19.771Z,25.77
2019-03-28T08:52:52.178Z,22.80
2019-03-28T08:55:21.573Z,30.33
2019-03-28T08:57:50.964Z,23.37
2019-03-28T09:00:32.238Z,24.13
2019-03-28T09:02:51.456Z,25.57
2019-03-28T09:05:20.843Z,25.47
2019-03-28T09:07:50.531Z,25.27
2019-03-28T09:10:19.933Z,23.13
2019-03-28T09:12:49.647Z,25.72
2019-03-28T09:15:19.438Z,25.60
2019-03-28T09:17:48.816Z,23.40
2019-03-28T09:20:19.064Z,21.17
2019-03-28T09:22:48.418Z,24.07
2019-03-28T09:25:17.863Z,22.97
2019-03-28T09:27:47.247Z,21.63
2019-03-28T09:30:21.516Z,22.37
2019-03-28T09:32:51.216Z,17.07
2019-03-28T09:35:30.082Z,22.03
2019-03-28T09:37:59.419Z,22.30
2019-03-28T09:40:28.806Z,25.83
2019-03-28T09:42:58.543Z,21.40
2019-03-28T09:45:27.954Z,22.07
2019-03-28T09:47:57.376Z,25.57
2019-03-28T09:50:26.762Z,21.93
2019-03-28T09:52:56.199Z,24.30
2019-03-28T09:55:25.568Z,26.65
2019-03-28T09:57:54.950Z,28.60
2019-03-28T10:00:24.333Z,28.80
2019-03-28T10:02:53.729Z,27.80
2019-03-28T10:05:23.108Z,28.20
2019-03-28T10:07:52.494Z,26.83
2019-03-28T10:10:21.876Z,27.77
2019-03-28T10:12:52.075Z,31.93
2019-03-28T10:15:21.523Z,32.20
2019-03-28T10:17:51.185Z,33.23
2019-03-28T10:20:20.564Z,33.40
2019-03-28T10:22:50.749Z,29.17
2019-03-28T10:25:20.691Z,36.77
2019-03-28T10:27:50.077Z,34.83
2019-03-28T10:30:32.989Z,32.40
2019-03-28T10:33:03.223Z,36.07
2019-03-28T10:35:32.875Z,30.80
2019-03-28T10:38:02.331Z,27.90
2019-03-28T10:40:32.094Z,29.03
2019-03-28T10:43:01.470Z,32.20
2019-03-28T10:45:33.572Z,28.30
2019-03-28T10:48:02.916Z,29.50
2019-03-28T10:50:40.887Z,30.60
2019-03-28T10:53:03.969Z,27.77
2019-03-28T10:55:33.349Z,26.67
2019-03-28T10:58:17.186Z,29.63
2019-03-28T11:00:33.996Z,28.20
2019-03-28T11:03:03.601Z,27.37
2019-03-28T11:05:33.648Z,27.97
2019-03-28T11:08:03.036Z,27.30
2019-03-28T11:10:32.686Z,21.97
2019-03-28T11:13:02.081Z,27.07
2019-03-28T11:15:31.461Z,26.47
2019-03-28T11:18:01.309Z,28.67
2019-03-28T11:20:30.725Z,27.57
2019-03-28T11:23:02.301Z,27.33
2019-03-28T11:25:31.215Z,25.97
2019-03-28T11:28:00.744Z,26.20
2019-03-28T11:30:30.070Z,25.27
2019-03-28T11:32:59.459Z,24.77
2019-03-28T11:35:29.256Z,21.63
2019-03-28T11:37:58.636Z,25.93
2019-03-28T11:40:28.090Z,26.15
2019-03-28T11:42:57.474Z,22.73
2019-03-28T11:45:28.004Z,21.40
2019-03-28T11:47:57.391Z,19.80
2019-03-28T11:50:26.836Z,24.53
2019-03-28T11:52:56.630Z,20.43
2019-03-28T11:55:26.018Z,21.80
2019-03-28T11:57:56.569Z,21.40
2019-03-28T12:00:26.168Z,20.10
2019-03-28T12:02:55.548Z,21.07
2019-03-28T12:05:24.934Z,23.70
2019-03-28T12:07:54.309Z,17.97
2019-03-28T12:10:23.697Z,18.00
2019-03-28T12:12:53.096Z,16.27
2019-03-28T12:15:22.485Z,19.07
2019-03-28T12:17:51.863Z,15.77
2019-03-28T12:20:24.170Z,16.13
2019-03-28T12:22:56.076Z,14.37
2019-03-28T12:25:24.982Z,15.53
2019-03-28T12:27:54.360Z,16.20
2019-03-28T12:30:24.858Z,14.83
2019-03-28T12:32:54.237Z,14.10
2019-03-28T12:35:23.628Z,20.37
2019-03-28T12:37:53.009Z,15.63
2019-03-28T12:40:22.400Z,19.43
2019-03-28T12:42:51.783Z,19.47
2019-03-28T12:45:21.170Z,16.30
2019-03-28T12:47:50.549Z,14.33
2019-03-28T12:50:21.485Z,16.35
2019-03-28T12:52:50.863Z,19.30
2019-03-28T12:55:20.512Z,18.75
2019-03-28T12:57:50.110Z,18.97
2019-03-28T13:00:24.118Z,20.60
2019-03-28T13:02:53.488Z,18.32
2019-03-28T13:05:22.874Z,23.73
2019-03-28T13:07:52.252Z,20.33
2019-03-28T13:10:21.650Z,17.20
2019-03-28T13:12:51.029Z,15.60
2019-03-28T13:15:20.416Z,20.02
2019-03-28T13:17:49.811Z,17.07
2019-03-28T13:20:22.057Z,17.17
2019-03-28T13:22:52.028Z,22.33
2019-03-28T13:25:21.563Z,20.27
2019-03-28T13:27:50.938Z,18.57
2019-03-28T13:30:22.528Z,21.23
2019-03-28T13:32:51.918Z,24.53
2019-03-28T13:35:21.303Z,23.93
2019-03-28T13:37:50.674Z,21.23
2019-03-28T13:40:20.127Z,23.65
2019-03-28T13:42:52.842Z,21.47
2019-03-28T13:45:21.134Z,23.13
2019-03-28T13:47:54.159Z,21.67
2019-03-28T13:50:21.908Z,23.02
2019-03-28T13:52:51.275Z,23.35
2019-03-28T13:55:20.962Z,21.77
2019-03-28T13:57:52.239Z,24.10
2019-03-28T14:00:33.263Z,25.40
2019-03-28T14:03:02.720Z,24.15
2019-03-28T14:05:32.099Z,26.33
2019-03-28T14:08:01.778Z,24.77
2019-03-28T14:10:31.161Z,20.47
2019-03-28T14:13:00.544Z,20.93
2019-03-28T14:15:29.922Z,21.70
2019-03-28T14:17:59.748Z,23.33
2019-03-28T14:20:29.148Z,20.30
2019-03-28T14:22:58.537Z,21.20
2019-03-28T14:25:27.918Z,20.67
2019-03-28T14:27:57.447Z,23.60
2019-03-28T14:30:26.822Z,19.33
2019-03-28T14:33:10.165Z,23.03
2019-03-28T14:35:27.396Z,26.17
2019-03-28T14:37:56.794Z,19.80
2019-03-28T14:40:26.232Z,23.38
2019-03-28T14:42:55.623Z,23.35
2019-03-28T14:45:24.994Z,20.10
2019-03-28T14:47:54.469Z,21.82
2019-03-28T14:50:36.103Z,20.10
2019-03-28T14:53:09.285Z,27.17
2019-03-28T14:55:39.023Z,23.47
2019-03-28T14:58:09.062Z,26.42
2019-03-28T15:00:51.457Z,25.82
2019-03-28T15:03:26.941Z,22.50
2019-03-28T15:05:52.999Z,24.52
2019-03-28T15:08:22.387Z,22.60
2019-03-28T15:10:51.825Z,26.53
2019-03-28T15:13:22.703Z,22.93
2019-03-28T15:15:52.400Z,26.37
2019-03-28T15:18:22.400Z,25.15
2019-03-28T15:20:52.404Z,28.27
2019-03-28T15:23:21.791Z,22.17
2019-03-28T15:25:51.403Z,28.30
2019-03-28T15:28:20.798Z,29.48
2019-03-28T15:30:50.447Z,27.93
2019-03-28T15:33:19.824Z,25.60
2019-03-28T15:35:49.208Z,30.73
2019-03-28T15:38:18.583Z,26.62
2019-03-28T15:40:47.977Z,31.33
2019-03-28T15:43:17.418Z,32.43
2019-03-28T15:45:46.802Z,29.03
2019-03-28T15:48:16.187Z,26.03
2019-03-28T15:50:45.703Z,29.43
2019-03-28T15:53:15.231Z,26.30
2019-03-28T15:55:44.615Z,25.33
2019-03-28T15:58:22.979Z,30.53
2019-03-28T16:00:45.111Z,27.33
2019-03-28T16:03:14.486Z,29.23
2019-03-28T16:05:57.200Z,29.17
2019-03-28T16:08:15.798Z,25.67
2019-03-28T16:10:45.190Z,27.20
2019-03-28T16:13:14.558Z,26.17
2019-03-28T16:15:44.015Z,27.40
2019-03-28T16:18:13.791Z,30.07
2019-03-28T16:20:43.855Z,27.87
2019-03-28T16:23:13.234Z,31.23
2019-03-28T16:25:42.933Z,28.53
2019-03-28T16:28:12.308Z,31.43
2019-03-28T16:30:41.904Z,28.57
2019-03-28T16:33:11.414Z,37.23
2019-03-28T16:35:40.803Z,28.77
2019-03-28T16:38:10.182Z,29.17
2019-03-28T16:40:39.572Z,29.57
2019-03-28T16:43:08.959Z,28.30
2019-03-28T16:45:38.412Z,27.00
2019-03-28T16:48:08.159Z,26.40
2019-03-28T16:50:37.550Z,27.93
2019-03-28T16:53:10.509Z,27.60
2019-03-28T16:55:39.896Z,29.20
2019-03-28T16:58:09.271Z,33.50
2019-03-28T17:00:39.908Z,34.65
2019-03-28T17:03:10.546Z,30.75
2019-03-28T17:05:41.649Z,26.87
2019-03-28T17:08:11.206Z,29.87
2019-03-28T17:10:48.454Z,30.67
2019-03-28T17:13:18.536Z,31.07
2019-03-28T17:15:48.280Z,39.67
2019-03-28T17:18:19.162Z,34.10
2019-03-28T17:20:48.800Z,43.30
2019-03-28T17:23:18.268Z,39.23
2019-03-28T17:25:47.861Z,36.47
2019-03-28T17:28:17.355Z,37.13
2019-03-28T17:30:46.799Z,39.40
2019-03-28T17:33:17.821Z,49.23
2019-03-28T17:35:47.709Z,38.60
2019-03-28T17:38:17.402Z,41.53
2019-03-28T17:40:46.878Z,43.13
2019-03-28T17:43:16.313Z,45.17
2019-03-28T17:45:45.859Z,43.83
2019-03-28T17:48:15.322Z,47.40
2019-03-28T17:50:44.695Z,44.23
2019-03-28T17:53:16.003Z,47.67
2019-03-28T17:55:45.372Z,40.30
2019-03-28T17:58:14.760Z,41.37
2019-03-28T18:00:45.509Z,45.52
2019-03-28T18:03:15.034Z,47.73
2019-03-28T18:05:57.421Z,43.90
2019-03-28T18:08:15.916Z,42.17
2019-03-28T18:10:45.296Z,46.57
2019-03-28T18:13:14.710Z,47.83
2019-03-28T18:15:44.139Z,47.33
2019-03-28T18:18:13.597Z,43.43
2019-03-28T18:20:42.999Z,43.57
2019-03-28T18:23:12.445Z,45.40
2019-03-28T18:25:42.074Z,43.85
2019-03-28T18:28:11.524Z,42.20
2019-03-28T18:30:40.901Z,50.37
2019-03-28T18:33:11.241Z,52.60
2019-03-28T18:35:40.906Z,49.08
2019-03-28T18:38:10.929Z,48.58
2019-03-28T18:40:40.545Z,40.53
2019-03-28T18:43:11.369Z,40.80
2019-03-28T18:45:41.892Z,40.93
2019-03-28T18:48:22.076Z,42.43
2019-03-28T18:50:43.865Z,40.83
2019-03-28T18:53:14.433Z,41.47
2019-03-28T18:55:43.812Z,37.73
2019-03-28T18:58:13.209Z,45.93
2019-03-28T19:00:42.658Z,44.30
2019-03-28T19:03:12.119Z,47.00
2019-03-28T19:05:41.495Z,45.52
2019-03-28T19:08:11.414Z,43.00
2019-03-28T19:10:40.805Z,45.47
2019-03-28T19:13:10.179Z,41.80
2019-03-28T19:15:39.553Z,36.93
2019-03-28T19:18:09.023Z,38.00
2019-03-28T19:20:38.422Z,39.87
2019-03-28T19:23:07.807Z,47.87
2019-03-28T19:25:37.208Z,41.77
2019-03-28T19:28:07.755Z,40.73
2019-03-28T19:30:38.670Z,42.40
2019-03-28T19:33:08.241Z,43.23
2019-03-28T19:35:39.233Z,45.47
2019-03-28T19:38:09.215Z,47.10
2019-03-28T19:40:38.913Z,45.17
2019-03-28T19:43:19.884Z,42.77
2019-03-28T19:45:39.548Z,43.40
2019-03-28T19:48:09.462Z,39.73
2019-03-28T19:50:39.134Z,50.00
2019-03-28T19:53:11.926Z,44.57
2019-03-28T19:55:42.944Z,47.47
2019-03-28T19:58:13.771Z,66.93
2019-03-28T20:00:44.028Z,54.30
2019-03-28T20:03:13.679Z,56.17
2019-03-28T20:05:47.890Z,42.70
2019-03-28T20:08:16.473Z,39.23
2019-03-28T20:10:45.896Z,50.13
2019-03-28T20:13:15.275Z,38.33
2019-03-28T20:15:45.038Z,47.73
2019-03-28T20:18:14.742Z,43.63
2019-03-28T20:20:44.127Z,45.60
2019-03-28T20:23:13.502Z,44.90
2019-03-28T20:25:43.050Z,46.73
2019-03-28T20:28:14.400Z,48.37
2019-03-28T20:30:43.705Z,50.45
2019-03-28T20:33:13.083Z,47.07
2019-03-28T20:35:42.700Z,47.25
2019-03-28T20:38:12.069Z,56.07
2019-03-28T20:40:43.361Z,50.43
2019-03-28T20:43:12.664Z,54.23
2019-03-28T20:45:42.117Z,55.50
2019-03-28T20:48:11.566Z,58.70
2019-03-28T20:50:41.046Z,54.23
2019-03-28T20:53:12.303Z,50.57
2019-03-28T20:55:41.644Z,50.10
2019-03-28T20:58:11.020Z,48.50
2019-03-28T21:00:46.459Z,49.20
2019-03-28T21:03:16.765Z,41.90
2019-03-28T21:05:46.585Z,46.93
2019-03-28T21:08:16.114Z,48.53
2019-03-28T21:10:45.456Z,46.70
2019-03-28T21:13:14.831Z,47.33
2019-03-28T21:15:45.831Z,49.45
2019-03-28T21:18:15.280Z,45.73
2019-03-28T21:20:44.668Z,46.50
2019-03-28T21:23:14.098Z,47.10
2019-03-28T21:25:43.615Z,49.20
2019-03-28T21:28:14.000Z,50.30
2019-03-28T21:30:47.648Z,54.47
2019-03-28T21:33:15.099Z,52.78
2019-03-28T21:35:44.878Z,43.50
2019-03-28T21:38:14.260Z,47.55
2019-03-28T21:40:43.712Z,50.77
2019-03-28T21:43:13.099Z,45.40
2019-03-28T21:45:42.475Z,49.03
2019-03-28T21:48:11.855Z,46.00
2019-03-28T21:50:41.245Z,53.28
2019-03-28T21:53:16.293Z,49.18
2019-03-28T21:55:54.884Z,50.43
2019-03-28T21:58:17.128Z,48.83
2019-03-28T22:00:46.720Z,45.83
2019-03-28T22:03:16.943Z,52.50
2019-03-28T22:05:46.679Z,54.90
2019-03-28T22:08:16.068Z,47.27
2019-03-28T22:10:45.450Z,56.77
2019-03-28T22:13:14.838Z,54.13
2019-03-28T22:15:44.208Z,53.23
2019-03-28T22:18:13.606Z,47.67
2019-03-28T22:20:43.704Z,46.57
2019-03-28T22:23:13.806Z,48.40
2019-03-28T22:25:43.247Z,49.77
2019-03-28T22:28:12.845Z,49.00
2019-03-28T22:30:42.214Z,51.07
2019-03-28T22:33:11.604Z,56.47
2019-03-28T22:35:40.969Z,54.17
2019-03-28T22:38:10.357Z,56.30
2019-03-28T22:40:39.725Z,58.10
2019-03-28T22:43:09.116Z,58.90
2019-03-28T22:45:38.483Z,51.90
2019-03-28T22:48:11.169Z,52.07
2019-03-28T22:50:38.968Z,56.20
2019-03-28T22:53:08.350Z,55.40
2019-03-28T22:55:38.309Z,56.25
2019-03-28T22:58:08.410Z,53.58
2019-03-28T23:00:45.976Z,56.00
2019-03-28T23:03:16.969Z,50.53
2019-03-28T23:05:46.476Z,60.50
2019-03-28T23:08:15.939Z,60.03
2019-03-28T23:10:45.304Z,52.15
2019-03-28T23:13:14.695Z,60.67
2019-03-28T23:15:44.070Z,58.43
2019-03-28T23:18:13.621Z,55.73
2019-03-28T23:20:43.126Z,57.33
2019-03-28T23:23:12.501Z,55.70
2019-03-28T23:25:41.869Z,53.17
2019-03-28T23:28:11.256Z,53.23
2019-03-28T23:30:40.626Z,56.53
2019-03-28T23:33:10.007Z,60.17
2019-03-28T23:35:39.445Z,51.63
2019-03-28T23:38:09.545Z,53.40
2019-03-28T23:40:38.916Z,51.30
2019-03-28T23:43:09.811Z,54.57
2019-03-28T23:45:39.259Z,55.77
2019-03-28T23:48:08.692Z,56.70
2019-03-28T23:50:38.066Z,56.17
2019-03-28T23:53:08.842Z,53.87
2019-03-28T23:55:38.415Z,59.67
2019-03-28T23:58:07.768Z,64.03
